createdAt,value
2022-09-28T00:00:07.752Z,57652.72
2022-09-28T00:02:42.205Z,57678.59
2022-09-28T00:05:11.275Z,57740.31
2022-09-28T00:07:39.944Z,57728.34
2022-09-28T00:10:10.892Z,57726.38
2022-09-28T00:12:39.702Z,57780.13
2022-09-28T00:15:09.301Z,57825.91
2022-09-28T00:17:37.634Z,57859.75
2022-09-28T00:20:08.121Z,58007.03
2022-09-28T00:22:36.583Z,57999.09
2022-09-28T00:25:05.882Z,57945.34
2022-09-28T00:27:34.631Z,57921.44
2022-09-28T00:30:03.201Z,57981.16
2022-09-28T00:32:32.353Z,57821.91
2022-09-28T00:35:00.885Z,57788.06
2022-09-28T00:37:30.566Z,57790.06
2022-09-28T00:39:59.462Z,57764.19
2022-09-28T00:42:28.402Z,57893.56
2022-09-28T00:44:58.169Z,57871.69
2022-09-28T00:47:43.820Z,57831.88
2022-09-28T00:50:18.532Z,57825.91
2022-09-28T00:52:54.457Z,57802.00
2022-09-28T00:55:31.074Z,57772.16
2022-09-28T00:58:04.939Z,57732.34
2022-09-28T01:00:33.473Z,57800.03
2022-09-28T01:03:02.213Z,57772.16
2022-09-28T01:05:31.682Z,57811.97
2022-09-28T01:08:03.698Z,57929.41
2022-09-28T01:10:33.610Z,58030.94
2022-09-28T01:13:04.077Z,58134.44
2022-09-28T01:15:40.413Z,58253.91
2022-09-28T01:18:18.852Z,58421.13
2022-09-28T01:21:01.636Z,58578.44
2022-09-28T01:23:55.755Z,58526.66
2022-09-28T01:26:49.944Z,58614.25
2022-09-28T01:29:24.432Z,58586.38
2022-09-28T01:32:08.692Z,58562.50
2022-09-28T01:34:43.712Z,58445.03
2022-09-28T01:37:17.909Z,58297.69
2022-09-28T01:39:49.846Z,58212.09
2022-09-28T01:42:23.878Z,58245.94
2022-09-28T01:44:56.264Z,58263.84
2022-09-28T01:47:28.339Z,58273.81
2022-09-28T01:50:05.174Z,58329.56
2022-09-28T01:52:41.682Z,58237.97
2022-09-28T01:55:15.010Z,58391.28
2022-09-28T01:57:52.882Z,58365.38
2022-09-28T02:00:24.205Z,58524.66
2022-09-28T02:02:57.743Z,58554.53
2022-09-28T02:05:38.765Z,58725.75
2022-09-28T02:08:11.478Z,58815.38
2022-09-28T02:10:48.519Z,58885.06
2022-09-28T02:13:25.049Z,58942.81
2022-09-28T02:15:58.645Z,59173.81
2022-09-28T02:18:27.065Z,59277.34
2022-09-28T02:21:07.714Z,59436.69
2022-09-28T02:23:40.755Z,59566.13
2022-09-28T02:26:15.100Z,59574.09
2022-09-28T02:28:45.073Z,59715.50
2022-09-28T02:31:13.746Z,59846.97
2022-09-28T02:33:45.230Z,59914.69
2022-09-28T02:36:14.236Z,60010.28
2022-09-28T02:38:42.781Z,60050.13
2022-09-28T02:41:22.504Z,60058.09
2022-09-28T02:44:03.587Z,60185.56
2022-09-28T02:46:44.701Z,60253.31
2022-09-28T02:49:29.229Z,60201.50
2022-09-28T02:52:20.723Z,60235.38
2022-09-28T02:55:20.556Z,60424.63
2022-09-28T02:58:15.321Z,60396.72
2022-09-28T03:00:52.709Z,60416.66
2022-09-28T03:03:30.683Z,60430.59
2022-09-28T03:06:04.671Z,60627.81
2022-09-28T03:08:43.881Z,60819.09
2022-09-28T03:11:19.866Z,61058.19
2022-09-28T03:13:52.877Z,61161.78
2022-09-28T03:16:28.379Z,61070.13
2022-09-28T03:18:56.913Z,61060.16
2022-09-28T03:21:28.137Z,60815.09
2022-09-28T03:23:56.591Z,60850.97
2022-09-28T03:26:25.159Z,61109.97
2022-09-28T03:28:56.562Z,61183.72
2022-09-28T03:31:28.560Z,61456.69
2022-09-28T03:34:00.435Z,61416.84
2022-09-28T03:36:29.286Z,61404.88
2022-09-28T03:38:59.602Z,61436.78
2022-09-28T03:41:29.055Z,61343.13
2022-09-28T03:43:57.545Z,61269.38
2022-09-28T03:46:33.613Z,61169.75
2022-09-28T03:49:07.252Z,61408.88
2022-09-28T03:51:35.646Z,61331.16
2022-09-28T03:54:04.066Z,61000.41
2022-09-28T03:56:32.433Z,60862.91
2022-09-28T03:59:01.005Z,60663.69
2022-09-28T04:01:31.046Z,60643.75
2022-09-28T04:03:59.952Z,60763.31
2022-09-28T04:06:28.719Z,60803.16
2022-09-28T04:08:57.670Z,60938.63
2022-09-28T04:11:26.977Z,61010.34
2022-09-28T04:13:55.497Z,60944.59
2022-09-28T04:16:24.683Z,60825.06
2022-09-28T04:19:04.182Z,60809.13
2022-09-28T04:21:55.380Z,60815.09
2022-09-28T04:24:24.441Z,60595.94
2022-09-28T04:27:13.167Z,60301.13
2022-09-28T04:29:43.229Z,60480.41
2022-09-28T04:32:13.113Z,60034.19
2022-09-28T04:34:44.500Z,59831.03
2022-09-28T04:37:13.546Z,59783.22
2022-09-28T04:39:46.258Z,59627.88
2022-09-28T04:42:19.247Z,59643.81
2022-09-28T04:44:48.371Z,59631.84
2022-09-28T04:47:16.897Z,59679.66
2022-09-28T04:50:11.583Z,59729.44
2022-09-28T04:53:01.852Z,59562.16
2022-09-28T04:55:32.577Z,59331.13
2022-09-28T04:58:03.059Z,58950.78
2022-09-28T05:00:35.349Z,59086.19
2022-09-28T05:03:26.973Z,59086.19
2022-09-28T05:06:16.420Z,59175.78
2022-09-28T05:08:47.277Z,59040.38
2022-09-28T05:11:16.817Z,59157.88
2022-09-28T05:13:48.693Z,59114.06
2022-09-28T05:16:20.505Z,59149.91
2022-09-28T05:19:07.879Z,59133.97
2022-09-28T05:21:37.809Z,59118.03
2022-09-28T05:24:07.830Z,58988.59
2022-09-28T05:26:39.082Z,58827.31
2022-09-28T05:29:09.409Z,58859.19
2022-09-28T05:32:07.453Z,58715.81
2022-09-28T05:34:39.017Z,58562.50
2022-09-28T05:37:11.028Z,58787.50
2022-09-28T05:39:39.562Z,58739.72
2022-09-28T05:42:08.136Z,58739.72
2022-09-28T05:44:38.473Z,58640.16
2022-09-28T05:47:07.266Z,58632.19
2022-09-28T05:49:35.860Z,58660.06
2022-09-28T05:52:04.379Z,58668.03
2022-09-28T05:54:36.966Z,58604.31
2022-09-28T05:57:07.609Z,58449.00
2022-09-28T05:59:36.425Z,58443.03
2022-09-28T06:02:06.983Z,58279.78
2022-09-28T06:04:35.425Z,58190.19
2022-09-28T06:07:04.374Z,58132.47
2022-09-28T06:09:33.079Z,58013.03
2022-09-28T06:12:06.242Z,57913.47
2022-09-28T06:14:44.911Z,57921.44
2022-09-28T06:17:13.992Z,57955.28
2022-09-28T06:19:45.511Z,58050.84
2022-09-28T06:22:16.609Z,58132.47
2022-09-28T06:24:52.577Z,58241.97
2022-09-28T06:27:22.515Z,58303.69
2022-09-28T06:29:51.062Z,58449.00
2022-09-28T06:32:19.861Z,58809.41
2022-09-28T06:34:56.071Z,58962.72
2022-09-28T06:37:27.384Z,58757.63
2022-09-28T06:39:56.646Z,58737.72
2022-09-28T06:42:27.072Z,58130.47
2022-09-28T06:45:25.783Z,58285.75
2022-09-28T06:48:26.398Z,58070.75
2022-09-28T06:50:55.085Z,57622.84
2022-09-28T06:53:29.346Z,57628.84
2022-09-28T06:56:05.126Z,57734.34
2022-09-28T06:58:37.383Z,57509.41
2022-09-28T07:01:06.047Z,57326.28
2022-09-28T07:03:44.879Z,57320.31
2022-09-28T07:06:48.192Z,57268.56
2022-09-28T07:09:48.111Z,57700.50
2022-09-28T07:12:30.317Z,57324.31
2022-09-28T07:15:05.227Z,56715.31
2022-09-28T07:17:44.692Z,57077.50
2022-09-28T07:20:20.644Z,56892.44
2022-09-28T07:22:54.709Z,56956.13
2022-09-28T07:25:25.787Z,56989.94
2022-09-28T07:28:21.343Z,56643.69
2022-09-28T07:31:21.324Z,56566.09
2022-09-28T07:34:07.138Z,56759.09
2022-09-28T07:36:59.726Z,56850.66
2022-09-28T07:39:28.364Z,56767.06
2022-09-28T07:42:02.418Z,56134.31
2022-09-28T07:44:31.529Z,56118.38
2022-09-28T07:47:02.155Z,56323.31
2022-09-28T07:49:54.522Z,55913.47
2022-09-28T07:52:39.995Z,55523.56
2022-09-28T07:55:20.273Z,55571.28
2022-09-28T07:57:56.288Z,55515.59
2022-09-28T08:00:48.852Z,55543.44
2022-09-28T08:03:20.233Z,55541.47
2022-09-28T08:05:48.727Z,55314.69
2022-09-28T08:08:18.598Z,55249.06
2022-09-28T08:10:47.743Z,55127.72
2022-09-28T08:13:27.044Z,54900.97
2022-09-28T08:16:15.765Z,54773.69
2022-09-28T08:19:14.714Z,54895.00
2022-09-28T08:21:45.108Z,54473.41
2022-09-28T08:24:15.227Z,54592.72
2022-09-28T08:26:44.325Z,54501.22
2022-09-28T08:29:16.325Z,54568.84
2022-09-28T08:31:44.979Z,54459.47
2022-09-28T08:34:42.617Z,54322.25
2022-09-28T08:37:34.232Z,54256.63
2022-09-28T08:40:24.841Z,54415.72
2022-09-28T08:43:25.067Z,54218.84
2022-09-28T08:46:27.160Z,54202.94
2022-09-28T08:49:26.729Z,54087.63
2022-09-28T08:52:16.587Z,54069.72
2022-09-28T08:55:12.781Z,53996.16
2022-09-28T08:57:50.236Z,54035.91
2022-09-28T09:00:23.075Z,53982.25
2022-09-28T09:02:51.891Z,53956.38
2022-09-28T09:05:29.174Z,53914.63
2022-09-28T09:08:19.547Z,53926.56
2022-09-28T09:10:53.581Z,53896.75
2022-09-28T09:14:06.765Z,53884.81
2022-09-28T09:16:46.164Z,53952.41
2022-09-28T09:19:36.799Z,53884.81
2022-09-28T09:22:40.992Z,53878.84
2022-09-28T09:25:20.325Z,53813.22
2022-09-28T09:28:32.747Z,53880.84
2022-09-28T09:31:11.279Z,53849.03
2022-09-28T09:34:02.819Z,53793.34
2022-09-28T09:37:08.694Z,53791.34
2022-09-28T09:40:30.477Z,53791.34
2022-09-28T09:43:16.220Z,53785.41
2022-09-28T09:46:12.772Z,53787.38
2022-09-28T09:49:06.767Z,53755.56
2022-09-28T09:51:43.234Z,53775.47
2022-09-28T09:54:19.709Z,53785.41
2022-09-28T09:56:55.193Z,53793.34
2022-09-28T09:59:45.114Z,53773.47
2022-09-28T10:02:25.776Z,53741.66
2022-09-28T10:05:08.146Z,53727.75
2022-09-28T10:07:43.790Z,53731.72
2022-09-28T10:10:17.214Z,53680.03
2022-09-28T10:12:52.565Z,53709.84
2022-09-28T10:15:27.289Z,53725.75
2022-09-28T10:18:20.242Z,53695.94
2022-09-28T10:21:07.291Z,53705.88
2022-09-28T10:23:45.945Z,53725.75
2022-09-28T10:26:25.123Z,53713.81
2022-09-28T10:29:00.959Z,53682.00
2022-09-28T10:31:42.067Z,53695.94
2022-09-28T10:34:20.407Z,53656.16
2022-09-28T10:36:55.920Z,53682.00
2022-09-28T10:39:36.686Z,53668.09
2022-09-28T10:42:08.999Z,53687.97
2022-09-28T10:44:51.746Z,53650.19
2022-09-28T10:47:30.627Z,53646.22
2022-09-28T10:50:01.002Z,53672.06
2022-09-28T10:52:36.230Z,53628.31
2022-09-28T10:55:28.264Z,53602.47
2022-09-28T10:57:56.948Z,53626.34
2022-09-28T11:00:38.756Z,53618.38
2022-09-28T11:03:22.002Z,53632.31
2022-09-28T11:06:00.307Z,53608.44
2022-09-28T11:08:33.034Z,53634.28
2022-09-28T11:11:10.271Z,53594.53
2022-09-28T11:13:49.078Z,53600.50
2022-09-28T11:16:28.629Z,53550.78
2022-09-28T11:18:58.406Z,53558.75
2022-09-28T11:21:31.328Z,53518.97
2022-09-28T11:24:19.722Z,53558.75
2022-09-28T11:26:52.995Z,53566.69
2022-09-28T11:29:32.258Z,53540.84
2022-09-28T11:32:22.091Z,53544.81
2022-09-28T11:35:19.826Z,53540.84
2022-09-28T11:38:05.549Z,53532.91
2022-09-28T11:41:18.283Z,53588.56
2022-09-28T11:44:09.138Z,53580.63
2022-09-28T11:46:50.177Z,53574.66
2022-09-28T11:49:31.336Z,53598.50
2022-09-28T11:52:08.021Z,53624.34
2022-09-28T11:54:42.463Z,53574.66
2022-09-28T11:57:17.983Z,53584.59
2022-09-28T11:59:57.731Z,53578.63
2022-09-28T12:02:31.257Z,53612.44
2022-09-28T12:05:20.708Z,53590.56
2022-09-28T12:07:54.249Z,53566.69
2022-09-28T12:11:01.581Z,53578.63
2022-09-28T12:14:11.714Z,53560.72
2022-09-28T12:19:42.501Z,53505.06
2022-09-28T12:22:19.624Z,53532.91
2022-09-28T12:24:52.318Z,53546.81
2022-09-28T12:27:28.238Z,53507.06
2022-09-28T12:30:04.006Z,53471.28
2022-09-28T12:32:40.491Z,53501.09
2022-09-28T12:35:15.102Z,53475.25
2022-09-28T12:37:58.755Z,53487.19
2022-09-28T12:40:38.967Z,53439.47
2022-09-28T12:43:34.203Z,53423.56
2022-09-28T12:46:24.239Z,53455.38
2022-09-28T12:52:30.250Z,53397.72
2022-09-28T12:55:36.689Z,53383.78
2022-09-28T12:58:26.748Z,53383.78
2022-09-28T13:01:07.949Z,53427.53
2022-09-28T13:04:12.772Z,53399.69
2022-09-28T13:06:55.877Z,53379.81
2022-09-28T13:09:26.541Z,53369.88
2022-09-28T13:12:20.902Z,53403.69
2022-09-28T13:15:16.404Z,53423.56
2022-09-28T13:17:59.289Z,53443.44
2022-09-28T13:20:40.466Z,53463.31
2022-09-28T13:23:16.651Z,53455.38
2022-09-28T13:25:51.455Z,53497.13
2022-09-28T13:28:27.007Z,53499.09
2022-09-28T13:33:37.005Z,53517.00
2022-09-28T13:36:26.235Z,53503.06
2022-09-28T13:38:55.676Z,53532.91
2022-09-28T13:41:31.812Z,53526.94
2022-09-28T13:44:33.544Z,53544.81
2022-09-28T13:47:20.753Z,53530.91
2022-09-28T13:50:03.073Z,53534.88
2022-09-28T13:52:46.931Z,53528.94
2022-09-28T13:55:36.027Z,53524.94
2022-09-28T13:58:15.440Z,53526.94
2022-09-28T14:00:51.391Z,53548.81
2022-09-28T14:03:29.467Z,53507.06
2022-09-28T14:06:11.054Z,53511.03
2022-09-28T14:08:45.013Z,53511.03
2022-09-28T14:11:50.057Z,53475.25
2022-09-28T14:14:50.614Z,53505.06
2022-09-28T14:17:55.771Z,53471.28
2022-09-28T14:20:32.007Z,53526.94
2022-09-28T14:23:27.358Z,53513.03
2022-09-28T14:26:21.185Z,53530.91
2022-09-28T14:29:05.221Z,53503.06
2022-09-28T14:31:35.535Z,53538.88
2022-09-28T14:34:08.193Z,53544.81
2022-09-28T14:37:00.888Z,53532.91
2022-09-28T14:39:52.402Z,53558.75
2022-09-28T14:42:23.801Z,53568.69
2022-09-28T14:45:30.287Z,53578.63
2022-09-28T14:48:21.565Z,53570.69
2022-09-28T14:50:55.798Z,53574.66
2022-09-28T14:53:26.267Z,53598.50
2022-09-28T14:55:59.100Z,53554.78
2022-09-28T14:58:29.975Z,53590.56
2022-09-28T15:01:06.621Z,53592.53
2022-09-28T15:03:36.808Z,53598.50
2022-09-28T15:06:05.394Z,53622.38
2022-09-28T15:08:40.015Z,53588.56
2022-09-28T15:11:15.437Z,53602.47
2022-09-28T15:13:44.835Z,53610.44
2022-09-28T15:16:15.574Z,53644.22
2022-09-28T15:19:15.959Z,53614.41
2022-09-28T15:21:47.508Z,53624.34
2022-09-28T15:24:30.682Z,53654.19
2022-09-28T15:27:00.281Z,53636.28
2022-09-28T15:29:31.770Z,53642.25
2022-09-28T15:32:00.560Z,53654.19
2022-09-28T15:34:56.815Z,53660.13
2022-09-28T15:37:28.846Z,53638.28
2022-09-28T15:39:59.988Z,53650.19
2022-09-28T15:42:31.634Z,53654.19
2022-09-28T15:45:26.563Z,53697.91
2022-09-28T15:48:18.859Z,53705.88
2022-09-28T15:51:02.482Z,53676.03
2022-09-28T15:53:31.509Z,53672.06
2022-09-28T15:56:10.413Z,53654.19
2022-09-28T15:58:40.487Z,53682.00
2022-09-28T16:01:36.193Z,53666.09
2022-09-28T16:04:56.529Z,53725.75
2022-09-28T16:07:29.856Z,53689.97
2022-09-28T16:10:07.753Z,53711.84
2022-09-28T16:12:50.815Z,53723.75
2022-09-28T16:15:22.743Z,53731.72
2022-09-28T16:17:53.921Z,53735.69
2022-09-28T16:20:29.697Z,53753.59
2022-09-28T16:23:05.661Z,53755.56
2022-09-28T16:25:35.905Z,53741.66
2022-09-28T16:28:07.202Z,53773.47
2022-09-28T16:30:36.333Z,53759.56
2022-09-28T16:33:07.170Z,53761.53
2022-09-28T16:35:52.039Z,53745.63
2022-09-28T16:38:21.661Z,53785.41
2022-09-28T16:40:53.865Z,53763.53
2022-09-28T16:43:29.109Z,53785.41
2022-09-28T16:45:59.956Z,53817.22
2022-09-28T16:48:35.951Z,53821.19
2022-09-28T16:51:04.545Z,53809.25
2022-09-28T16:53:50.646Z,53815.22
2022-09-28T16:56:19.102Z,53783.41
2022-09-28T16:58:50.500Z,53817.22
2022-09-28T17:01:19.651Z,53805.28
2022-09-28T17:03:50.126Z,53831.13
2022-09-28T17:06:20.516Z,53819.19
2022-09-28T17:08:48.855Z,53831.13
2022-09-28T17:11:24.501Z,53851.00
2022-09-28T17:13:59.178Z,53851.00
2022-09-28T17:19:22.263Z,53884.81
2022-09-28T17:21:52.242Z,53912.66
2022-09-28T17:24:21.801Z,53890.78
2022-09-28T17:26:52.551Z,53922.59
2022-09-28T17:29:22.527Z,53908.66
2022-09-28T17:31:50.903Z,53940.47
2022-09-28T17:34:20.214Z,53974.28
2022-09-28T17:36:49.079Z,53984.22
2022-09-28T17:39:19.211Z,54027.97
2022-09-28T17:41:47.763Z,54027.97
2022-09-28T17:44:16.639Z,54016.03
2022-09-28T17:46:49.674Z,54047.84
2022-09-28T17:49:18.945Z,54075.69
2022-09-28T17:51:47.850Z,54107.50
2022-09-28T17:54:19.999Z,54141.31
2022-09-28T17:56:49.095Z,54135.34
2022-09-28T17:59:19.588Z,54179.09
2022-09-28T18:01:49.655Z,54187.03
2022-09-28T18:04:40.176Z,54173.13
2022-09-28T18:07:07.467Z,54191.03
2022-09-28T18:09:36.203Z,54218.84
2022-09-28T18:12:06.497Z,54218.84
2022-09-28T18:14:35.962Z,54248.69
2022-09-28T18:17:06.165Z,54171.13
2022-09-28T18:19:34.708Z,54179.09
2022-09-28T18:22:03.390Z,54202.94
2022-09-28T18:24:32.630Z,54238.75
2022-09-28T18:27:01.487Z,54236.75
2022-09-28T18:29:33.268Z,54282.50
2022-09-28T18:32:02.762Z,54350.09
2022-09-28T18:34:32.713Z,54324.25
2022-09-28T18:37:01.231Z,54346.13
2022-09-28T18:39:30.517Z,54304.38
2022-09-28T18:41:59.309Z,54336.19
2022-09-28T18:44:27.930Z,54366.00
2022-09-28T18:46:56.801Z,54405.78
2022-09-28T18:49:25.596Z,54369.97
2022-09-28T18:51:55.406Z,54358.06
2022-09-28T18:54:24.602Z,54350.09
2022-09-28T18:56:57.345Z,54322.25
2022-09-28T18:59:26.143Z,54358.06
2022-09-28T19:01:54.851Z,54377.94
2022-09-28T19:04:23.630Z,54421.69
2022-09-28T19:06:54.506Z,54381.91
2022-09-28T19:09:26.629Z,54397.81
2022-09-28T19:11:55.324Z,54375.94
2022-09-28T19:14:23.840Z,54407.78
2022-09-28T19:16:53.030Z,54389.88
2022-09-28T19:19:22.282Z,54348.13
2022-09-28T19:21:50.936Z,54302.38
2022-09-28T19:24:21.812Z,54332.19
2022-09-28T19:26:53.607Z,54332.19
2022-09-28T19:29:22.817Z,54332.19
2022-09-28T19:31:52.091Z,54393.84
2022-09-28T19:34:24.471Z,54310.34
2022-09-28T19:36:53.017Z,54391.84
2022-09-28T19:39:21.755Z,54381.91
2022-09-28T19:41:52.562Z,54300.38
2022-09-28T19:44:28.253Z,54302.38
2022-09-28T19:46:58.565Z,54362.03
2022-09-28T19:49:32.984Z,54338.16
2022-09-28T19:52:13.395Z,54320.28
2022-09-28T19:54:45.041Z,54358.06
2022-09-28T19:57:16.058Z,54371.97
2022-09-28T19:59:48.408Z,54377.94
2022-09-28T20:02:19.547Z,54338.16
2022-09-28T20:04:48.012Z,54362.03
2022-09-28T20:07:16.460Z,54356.06
2022-09-28T20:09:45.131Z,54318.28
2022-09-28T20:12:14.934Z,54369.97
2022-09-28T20:14:43.358Z,54389.88
2022-09-28T20:17:11.728Z,54409.75
2022-09-28T20:19:40.489Z,54419.69
2022-09-28T20:22:08.969Z,54417.72
2022-09-28T20:24:37.605Z,54439.59
2022-09-28T20:27:06.434Z,54457.47
2022-09-28T20:29:36.422Z,54471.41
2022-09-28T20:32:05.404Z,54445.56
2022-09-28T20:34:35.597Z,54475.38
2022-09-28T20:37:06.661Z,54449.53
2022-09-28T20:39:35.834Z,54441.56
2022-09-28T20:42:04.384Z,54437.59
2022-09-28T20:44:32.754Z,54411.75
2022-09-28T20:47:03.218Z,54429.66
2022-09-28T20:49:32.087Z,54417.72
2022-09-28T20:52:00.652Z,54425.66
2022-09-28T20:54:29.494Z,54461.47
2022-09-28T20:56:58.192Z,54467.44
2022-09-28T20:59:27.838Z,54475.38
2022-09-28T21:01:56.611Z,54409.75
2022-09-28T21:04:27.133Z,54451.53
2022-09-28T21:06:55.754Z,54505.22
2022-09-28T21:09:24.395Z,54457.47
2022-09-28T21:11:52.910Z,54513.16
2022-09-28T21:14:21.449Z,54580.78
2022-09-28T21:16:49.973Z,54544.97
2022-09-28T21:19:18.431Z,54624.53
2022-09-28T21:21:48.463Z,54644.41
2022-09-28T21:24:17.102Z,54598.69
2022-09-28T21:26:45.866Z,54656.34
2022-09-28T21:29:15.942Z,54632.50
2022-09-28T21:31:46.911Z,54640.44
2022-09-28T21:34:19.977Z,54650.38
2022-09-28T21:36:52.776Z,54630.50
2022-09-28T21:39:21.403Z,54556.91
2022-09-28T21:41:50.190Z,54568.84
2022-09-28T21:44:18.875Z,54489.31
2022-09-28T21:46:47.744Z,54489.31
2022-09-28T21:49:16.287Z,54491.28
2022-09-28T21:51:47.237Z,54473.41
2022-09-28T21:54:17.181Z,54471.41
2022-09-28T21:56:45.609Z,54473.41
2022-09-28T21:59:14.092Z,54509.19
2022-09-28T22:01:42.938Z,54477.38
2022-09-28T22:04:12.310Z,54459.47
2022-09-28T22:06:41.087Z,54483.34
2022-09-28T22:09:09.902Z,54411.75
2022-09-28T22:11:39.843Z,54473.41
2022-09-28T22:14:08.838Z,54421.69
2022-09-28T22:16:37.421Z,54433.63
2022-09-28T22:19:05.773Z,54437.59
2022-09-28T22:21:35.513Z,54481.34
2022-09-28T22:24:07.346Z,54465.44
2022-09-28T22:26:38.005Z,54423.69
2022-09-28T22:29:09.630Z,54437.59
2022-09-28T22:31:39.757Z,54445.56
2022-09-28T22:34:09.356Z,54437.59
2022-09-28T22:36:37.906Z,54441.56
2022-09-28T22:39:06.567Z,54417.72
2022-09-28T22:41:34.988Z,54383.91
2022-09-28T22:44:03.683Z,54425.66
2022-09-28T22:46:33.915Z,54417.72
2022-09-28T22:49:02.636Z,54417.72
2022-09-28T22:51:31.889Z,54409.75
2022-09-28T22:54:01.386Z,54413.72
2022-09-28T22:56:30.266Z,54401.81
2022-09-28T22:58:58.864Z,54409.75
2022-09-28T23:01:29.551Z,54401.81
2022-09-28T23:04:00.106Z,54453.50
2022-09-28T23:06:30.914Z,54435.59
2022-09-28T23:08:59.528Z,54429.66
2022-09-28T23:11:28.866Z,54401.81
2022-09-28T23:13:59.110Z,54439.59
2022-09-28T23:16:28.363Z,54417.72
2022-09-28T23:18:57.237Z,54449.53
2022-09-28T23:21:28.453Z,54429.66
2022-09-28T23:23:58.702Z,54413.72
2022-09-28T23:26:29.262Z,54399.81
2022-09-28T23:28:58.156Z,54435.59
2022-09-28T23:31:28.754Z,54451.53
2022-09-28T23:34:01.436Z,54409.75
2022-09-28T23:36:31.346Z,54383.91
2022-09-28T23:38:59.901Z,54425.66
2022-09-28T23:41:28.856Z,54435.59
2022-09-28T23:43:57.609Z,54427.66
2022-09-28T23:46:26.837Z,54417.72
2022-09-28T23:49:01.484Z,54381.91
2022-09-28T23:51:34.630Z,54387.88
2022-09-28T23:54:05.471Z,54373.97
2022-09-28T23:56:34.450Z,54381.91
2022-09-28T23:59:03.289Z,54383.91
